sensor_id;sensor_type;location;lat;lon;timestamp;temperature;humidity
32173;DHT22;18679;45.190;5.722;2023-02-17T00:02:42;11.30;45.90
32173;DHT22;18679;45.190;5.722;2023-02-17T00:05:43;11.30;45.90
32173;DHT22;18679;45.190;5.722;2023-02-17T00:08:45;11.30;45.70
32173;DHT22;18679;45.190;5.722;2023-02-17T00:11:46;11.30;45.50
32173;DHT22;18679;45.190;5.722;2023-02-17T00:14:47;11.30;45.40
32173;DHT22;18679;45.190;5.722;2023-02-17T00:17:48;11.20;45.20
32173;DHT22;18679;45.190;5.722;2023-02-17T00:20:49;11.20;45.30
32173;DHT22;18679;45.190;5.722;2023-02-17T00:23:51;11.20;45.30
32173;DHT22;18679;45.190;5.722;2023-02-17T00:26:52;11.10;45.20
32173;DHT22;18679;45.190;5.722;2023-02-17T00:29:52;11.10;45.20
32173;DHT22;18679;45.190;5.722;2023-02-17T00:32:53;11.10;45.10
32173;DHT22;18679;45.190;5.722;2023-02-17T00:35:54;11.10;45.10
32173;DHT22;18679;45.190;5.722;2023-02-17T00:38:56;11.10;45.10
32173;DHT22;18679;45.190;5.722;2023-02-17T00:41:57;11.00;45.00
32173;DHT22;18679;45.190;5.722;2023-02-17T00:44:58;11.00;45.00
32173;DHT22;18679;45.190;5.722;2023-02-17T00:47:59;10.90;45.00
32173;DHT22;18679;45.190;5.722;2023-02-17T00:51:00;11.00;45.00
32173;DHT22;18679;45.190;5.722;2023-02-17T00:54:01;10.90;45.00
32173;DHT22;18679;45.190;5.722;2023-02-17T00:57:02;10.90;45.70
32173;DHT22;18679;45.190;5.722;2023-02-17T01:00:06;10.80;45.10
32173;DHT22;18679;45.190;5.722;2023-02-17T01:03:08;10.80;45.30
32173;DHT22;18679;45.190;5.722;2023-02-17T01:06:20;10.80;45.40
32173;DHT22;18679;45.190;5.722;2023-02-17T01:09:22;10.70;45.50
32173;DHT22;18679;45.190;5.722;2023-02-17T01:12:23;10.60;45.90
32173;DHT22;18679;45.190;5.722;2023-02-17T01:15:25;10.60;46.20
32173;DHT22;18679;45.190;5.722;2023-02-17T01:18:26;10.60;46.70
32173;DHT22;18679;45.190;5.722;2023-02-17T01:21:29;10.50;47.10
32173;DHT22;18679;45.190;5.722;2023-02-17T01:24:30;10.50;47.50
32173;DHT22;18679;45.190;5.722;2023-02-17T01:27:32;10.40;48.10
32173;DHT22;18679;45.190;5.722;2023-02-17T01:30:33;10.40;48.60
32173;DHT22;18679;45.190;5.722;2023-02-17T01:33:36;10.30;48.80
32173;DHT22;18679;45.190;5.722;2023-02-17T01:36:37;10.30;49.00
32173;DHT22;18679;45.190;5.722;2023-02-17T01:39:38;10.20;48.90
32173;DHT22;18679;45.190;5.722;2023-02-17T01:42:40;10.20;49.20
32173;DHT22;18679;45.190;5.722;2023-02-17T01:45:48;10.20;49.40
32173;DHT22;18679;45.190;5.722;2023-02-17T01:48:51;10.20;49.60
32173;DHT22;18679;45.190;5.722;2023-02-17T01:52:01;10.10;49.80
32173;DHT22;18679;45.190;5.722;2023-02-17T01:55:07;10.10;50.10
32173;DHT22;18679;45.190;5.722;2023-02-17T01:58:13;9.90;50.40
32173;DHT22;18679;45.190;5.722;2023-02-17T02:01:16;9.90;50.60
32173;DHT22;18679;45.190;5.722;2023-02-17T02:04:19;9.80;50.90
32173;DHT22;18679;45.190;5.722;2023-02-17T02:07:27;9.70;51.10
32173;DHT22;18679;45.190;5.722;2023-02-17T02:10:29;9.70;51.30
32173;DHT22;18679;45.190;5.722;2023-02-17T02:13:30;9.60;51.40
32173;DHT22;18679;45.190;5.722;2023-02-17T02:33:17;9.50;51.70
32173;DHT22;18679;45.190;5.722;2023-02-17T02:36:33;9.60;51.70
32173;DHT22;18679;45.190;5.722;2023-02-17T02:39:41;9.60;51.50
32173;DHT22;18679;45.190;5.722;2023-02-17T02:42:45;9.60;51.40
32173;DHT22;18679;45.190;5.722;2023-02-17T02:45:46;9.70;51.20
32173;DHT22;18679;45.190;5.722;2023-02-17T02:48:48;9.80;51.10
32173;DHT22;18679;45.190;5.722;2023-02-17T02:52:15;9.80;51.10
32173;DHT22;18679;45.190;5.722;2023-02-17T02:55:32;9.80;51.00
32173;DHT22;18679;45.190;5.722;2023-02-17T03:02:18;9.80;50.60
32173;DHT22;18679;45.190;5.722;2023-02-17T03:05:27;9.80;50.30
32173;DHT22;18679;45.190;5.722;2023-02-17T03:08:39;9.80;50.20
32173;DHT22;18679;45.190;5.722;2023-02-17T03:11:42;9.80;50.60
32173;DHT22;18679;45.190;5.722;2023-02-17T03:14:45;9.80;49.90
32173;DHT22;18679;45.190;5.722;2023-02-17T03:17:48;9.80;49.60
32173;DHT22;18679;45.190;5.722;2023-02-17T03:20:55;9.80;49.50
32173;DHT22;18679;45.190;5.722;2023-02-17T03:23:59;9.70;49.50
32173;DHT22;18679;45.190;5.722;2023-02-17T03:27:00;9.20;49.00
32173;DHT22;18679;45.190;5.722;2023-02-17T03:30:02;9.70;49.20
32173;DHT22;18679;45.190;5.722;2023-02-17T03:33:03;9.80;49.30
32173;DHT22;18679;45.190;5.722;2023-02-17T03:36:04;9.80;49.20
32173;DHT22;18679;45.190;5.722;2023-02-17T03:39:05;9.80;48.90
32173;DHT22;18679;45.190;5.722;2023-02-17T03:42:07;9.80;48.70
32173;DHT22;18679;45.190;5.722;2023-02-17T03:45:08;9.70;48.40
32173;DHT22;18679;45.190;5.722;2023-02-17T03:48:09;9.70;48.20
32173;DHT22;18679;45.190;5.722;2023-02-17T03:51:16;9.70;48.20
32173;DHT22;18679;45.190;5.722;2023-02-17T03:54:17;9.70;48.10
32173;DHT22;18679;45.190;5.722;2023-02-17T03:57:18;9.70;48.00
32173;DHT22;18679;45.190;5.722;2023-02-17T04:00:19;9.60;48.00
32173;DHT22;18679;45.190;5.722;2023-02-17T04:03:25;9.60;48.00
32173;DHT22;18679;45.190;5.722;2023-02-17T04:06:26;9.60;48.00
32173;DHT22;18679;45.190;5.722;2023-02-17T04:09:27;9.60;48.10
32173;DHT22;18679;45.190;5.722;2023-02-17T04:12:28;9.50;48.10
32173;DHT22;18679;45.190;5.722;2023-02-17T04:15:29;9.40;48.00
32173;DHT22;18679;45.190;5.722;2023-02-17T04:18:30;9.40;48.20
32173;DHT22;18679;45.190;5.722;2023-02-17T04:21:32;9.30;48.30
32173;DHT22;18679;45.190;5.722;2023-02-17T04:24:34;9.20;48.50
32173;DHT22;18679;45.190;5.722;2023-02-17T04:27:35;9.20;49.30
32173;DHT22;18679;45.190;5.722;2023-02-17T04:30:36;9.20;50.00
32173;DHT22;18679;45.190;5.722;2023-02-17T04:33:37;9.10;50.30
32173;DHT22;18679;45.190;5.722;2023-02-17T04:36:38;9.10;50.60
32173;DHT22;18679;45.190;5.722;2023-02-17T04:39:40;9.10;51.00
32173;DHT22;18679;45.190;5.722;2023-02-17T04:42:41;9.00;51.00
32173;DHT22;18679;45.190;5.722;2023-02-17T04:45:42;9.00;51.10
32173;DHT22;18679;45.190;5.722;2023-02-17T04:48:43;9.00;51.20
32173;DHT22;18679;45.190;5.722;2023-02-17T04:51:44;9.00;51.30
32173;DHT22;18679;45.190;5.722;2023-02-17T04:54:45;9.00;51.60
32173;DHT22;18679;45.190;5.722;2023-02-17T04:57:46;9.00;52.00
32173;DHT22;18679;45.190;5.722;2023-02-17T05:00:48;8.90;52.20
32173;DHT22;18679;45.190;5.722;2023-02-17T05:03:50;8.80;52.40
32173;DHT22;18679;45.190;5.722;2023-02-17T05:06:51;8.70;52.60
32173;DHT22;18679;45.190;5.722;2023-02-17T05:09:52;8.70;52.90
32173;DHT22;18679;45.190;5.722;2023-02-17T05:12:54;8.70;53.10
32173;DHT22;18679;45.190;5.722;2023-02-17T05:15:55;8.60;53.20
32173;DHT22;18679;45.190;5.722;2023-02-17T05:18:56;8.60;53.30
32173;DHT22;18679;45.190;5.722;2023-02-17T05:21:57;8.60;53.40
32173;DHT22;18679;45.190;5.722;2023-02-17T05:24:58;8.60;53.40
32173;DHT22;18679;45.190;5.722;2023-02-17T05:27:59;8.60;53.50
32173;DHT22;18679;45.190;5.722;2023-02-17T05:31:00;8.60;53.40
32173;DHT22;18679;45.190;5.722;2023-02-17T05:34:02;8.60;53.40
32173;DHT22;18679;45.190;5.722;2023-02-17T05:37:03;8.60;53.30
32173;DHT22;18679;45.190;5.722;2023-02-17T05:40:05;8.70;53.30
32173;DHT22;18679;45.190;5.722;2023-02-17T05:43:07;8.70;53.30
32173;DHT22;18679;45.190;5.722;2023-02-17T05:46:08;8.70;53.20
32173;DHT22;18679;45.190;5.722;2023-02-17T05:49:09;8.80;53.20
32173;DHT22;18679;45.190;5.722;2023-02-17T05:52:10;8.80;53.20
32173;DHT22;18679;45.190;5.722;2023-02-17T05:55:13;8.80;53.10
32173;DHT22;18679;45.190;5.722;2023-02-17T05:58:14;8.80;53.10
32173;DHT22;18679;45.190;5.722;2023-02-17T06:01:15;8.80;53.10
32173;DHT22;18679;45.190;5.722;2023-02-17T06:04:16;8.80;53.30
32173;DHT22;18679;45.190;5.722;2023-02-17T06:07:18;8.70;53.40
32173;DHT22;18679;45.190;5.722;2023-02-17T06:10:19;8.70;53.50
32173;DHT22;18679;45.190;5.722;2023-02-17T06:13:20;8.60;53.50
32173;DHT22;18679;45.190;5.722;2023-02-17T06:16:21;8.60;53.60
32173;DHT22;18679;45.190;5.722;2023-02-17T06:19:23;8.50;53.70
32173;DHT22;18679;45.190;5.722;2023-02-17T06:22:24;8.50;53.70
32173;DHT22;18679;45.190;5.722;2023-02-17T06:25:25;8.50;53.80
32173;DHT22;18679;45.190;5.722;2023-02-17T06:28:26;8.60;53.90
32173;DHT22;18679;45.190;5.722;2023-02-17T06:31:27;8.60;53.90
32173;DHT22;18679;45.190;5.722;2023-02-17T06:34:28;8.50;53.90
32173;DHT22;18679;45.190;5.722;2023-02-17T06:37:29;8.40;54.00
32173;DHT22;18679;45.190;5.722;2023-02-17T06:40:31;8.40;54.00
32173;DHT22;18679;45.190;5.722;2023-02-17T06:43:32;8.40;54.10
32173;DHT22;18679;45.190;5.722;2023-02-17T06:46:33;8.40;54.20
32173;DHT22;18679;45.190;5.722;2023-02-17T06:49:34;8.40;54.30
32173;DHT22;18679;45.190;5.722;2023-02-17T06:52:36;8.30;54.20
32173;DHT22;18679;45.190;5.722;2023-02-17T06:55:37;8.30;54.20
32173;DHT22;18679;45.190;5.722;2023-02-17T06:58:39;8.40;54.30
32173;DHT22;18679;45.190;5.722;2023-02-17T07:01:40;8.40;54.20
32173;DHT22;18679;45.190;5.722;2023-02-17T07:04:42;8.40;54.20
32173;DHT22;18679;45.190;5.722;2023-02-17T07:07:43;8.40;54.10
32173;DHT22;18679;45.190;5.722;2023-02-17T07:10:44;8.50;54.10
32173;DHT22;18679;45.190;5.722;2023-02-17T07:13:45;8.50;54.10
32173;DHT22;18679;45.190;5.722;2023-02-17T07:16:46;8.50;54.00
32173;DHT22;18679;45.190;5.722;2023-02-17T07:19:47;8.50;54.00
32173;DHT22;18679;45.190;5.722;2023-02-17T07:22:48;8.60;54.00
32173;DHT22;18679;45.190;5.722;2023-02-17T07:25:49;8.50;54.00
32173;DHT22;18679;45.190;5.722;2023-02-17T07:28:50;8.60;54.00
32173;DHT22;18679;45.190;5.722;2023-02-17T07:31:53;8.60;54.00
32173;DHT22;18679;45.190;5.722;2023-02-17T07:34:54;8.60;53.90
32173;DHT22;18679;45.190;5.722;2023-02-17T07:37:56;8.70;53.80
32173;DHT22;18679;45.190;5.722;2023-02-17T07:41:07;8.70;53.80
32173;DHT22;18679;45.190;5.722;2023-02-17T07:44:08;8.70;53.60
32173;DHT22;18679;45.190;5.722;2023-02-17T07:50:37;8.70;53.80
32173;DHT22;18679;45.190;5.722;2023-02-17T07:53:38;8.80;53.90
32173;DHT22;18679;45.190;5.722;2023-02-17T07:56:39;8.80;53.80
32173;DHT22;18679;45.190;5.722;2023-02-17T07:59:41;8.90;53.70
32173;DHT22;18679;45.190;5.722;2023-02-17T08:02:41;8.90;53.60
32173;DHT22;18679;45.190;5.722;2023-02-17T08:05:43;8.90;53.60
32173;DHT22;18679;45.190;5.722;2023-02-17T08:08:44;9.00;53.50
32173;DHT22;18679;45.190;5.722;2023-02-17T08:12:04;9.00;53.50
32173;DHT22;18679;45.190;5.722;2023-02-17T08:15:23;9.00;53.30
32173;DHT22;18679;45.190;5.722;2023-02-17T08:18:25;9.10;53.30
32173;DHT22;18679;45.190;5.722;2023-02-17T08:21:26;9.20;53.20
32173;DHT22;18679;45.190;5.722;2023-02-17T08:24:27;9.20;53.10
32173;DHT22;18679;45.190;5.722;2023-02-17T08:27:28;9.30;53.00
32173;DHT22;18679;45.190;5.722;2023-02-17T08:30:51;9.40;53.00
32173;DHT22;18679;45.190;5.722;2023-02-17T08:33:52;9.40;52.80
32173;DHT22;18679;45.190;5.722;2023-02-17T08:36:53;9.50;52.60
32173;DHT22;18679;45.190;5.722;2023-02-17T08:39:54;9.50;52.50
32173;DHT22;18679;45.190;5.722;2023-02-17T08:42:55;9.60;52.40
32173;DHT22;18679;45.190;5.722;2023-02-17T08:45:56;9.70;52.30
32173;DHT22;18679;45.190;5.722;2023-02-17T08:48:57;9.80;52.10
32173;DHT22;18679;45.190;5.722;2023-02-17T08:51:58;9.90;51.90
32173;DHT22;18679;45.190;5.722;2023-02-17T08:55:00;10.00;51.70
32173;DHT22;18679;45.190;5.722;2023-02-17T08:58:01;10.00;51.60
32173;DHT22;18679;45.190;5.722;2023-02-17T09:01:03;10.10;51.50
32173;DHT22;18679;45.190;5.722;2023-02-17T09:04:07;10.20;51.30
32173;DHT22;18679;45.190;5.722;2023-02-17T09:07:10;10.40;51.10
32173;DHT22;18679;45.190;5.722;2023-02-17T09:10:13;10.50;51.00
32173;DHT22;18679;45.190;5.722;2023-02-17T09:13:14;10.60;50.80
32173;DHT22;18679;45.190;5.722;2023-02-17T09:16:15;10.70;50.60
32173;DHT22;18679;45.190;5.722;2023-02-17T09:19:21;10.90;50.40
32173;DHT22;18679;45.190;5.722;2023-02-17T09:22:23;10.90;50.20
32173;DHT22;18679;45.190;5.722;2023-02-17T09:25:25;11.00;50.10
32173;DHT22;18679;45.190;5.722;2023-02-17T09:28:26;11.10;50.10
32173;DHT22;18679;45.190;5.722;2023-02-17T09:31:28;11.20;50.00
32173;DHT22;18679;45.190;5.722;2023-02-17T09:34:29;11.30;49.60
32173;DHT22;18679;45.190;5.722;2023-02-17T09:37:31;11.40;49.40
32173;DHT22;18679;45.190;5.722;2023-02-17T09:40:44;11.20;49.30
32173;DHT22;18679;45.190;5.722;2023-02-17T09:43:48;11.50;49.30
32173;DHT22;18679;45.190;5.722;2023-02-17T09:47:00;11.60;49.20
32173;DHT22;18679;45.190;5.722;2023-02-17T09:50:17;11.70;49.10
32173;DHT22;18679;45.190;5.722;2023-02-17T09:57:02;11.90;48.60
32173;DHT22;18679;45.190;5.722;2023-02-17T10:00:27;12.00;48.60
32173;DHT22;18679;45.190;5.722;2023-02-17T10:03:37;12.20;48.40
32173;DHT22;18679;45.190;5.722;2023-02-17T10:06:43;12.40;47.90
32173;DHT22;18679;45.190;5.722;2023-02-17T10:09:57;12.50;47.40
32173;DHT22;18679;45.190;5.722;2023-02-17T10:12:59;12.70;46.90
32173;DHT22;18679;45.190;5.722;2023-02-17T10:16:08;12.80;46.60
32173;DHT22;18679;45.190;5.722;2023-02-17T10:19:59;12.90;46.40
32173;DHT22;18679;45.190;5.722;2023-02-17T10:22:59;13.10;45.70
32173;DHT22;18679;45.190;5.722;2023-02-17T10:29:40;13.20;44.60
32173;DHT22;18679;45.190;5.722;2023-02-17T10:33:01;13.50;44.30
32173;DHT22;18679;45.190;5.722;2023-02-17T10:36:10;14.00;43.10
32173;DHT22;18679;45.190;5.722;2023-02-17T10:42:33;14.70;41.30
32173;DHT22;18679;45.190;5.722;2023-02-17T10:45:42;14.90;40.60
32173;DHT22;18679;45.190;5.722;2023-02-17T10:48:50;15.00;40.50
32173;DHT22;18679;45.190;5.722;2023-02-17T10:51:52;15.30;40.50
32173;DHT22;18679;45.190;5.722;2023-02-17T10:54:55;15.50;39.80
32173;DHT22;18679;45.190;5.722;2023-02-17T11:01:16;15.90;38.10
32173;DHT22;18679;45.190;5.722;2023-02-17T11:04:17;16.10;37.50
32173;DHT22;18679;45.190;5.722;2023-02-17T11:07:23;16.20;37.10
32173;DHT22;18679;45.190;5.722;2023-02-17T11:10:29;16.30;37.20
32173;DHT22;18679;45.190;5.722;2023-02-17T11:13:36;16.60;36.60
32173;DHT22;18679;45.190;5.722;2023-02-17T11:16:45;16.90;36.50
32173;DHT22;18679;45.190;5.722;2023-02-17T11:19:55;17.20;36.10
32173;DHT22;18679;45.190;5.722;2023-02-17T11:26:22;17.90;34.30
32173;DHT22;18679;45.190;5.722;2023-02-17T11:29:23;18.30;33.50
32173;DHT22;18679;45.190;5.722;2023-02-17T11:32:30;18.70;32.00
32173;DHT22;18679;45.190;5.722;2023-02-17T11:41:39;19.90;29.70
32173;DHT22;18679;45.190;5.722;2023-02-17T11:44:40;20.30;28.80
32173;DHT22;18679;45.190;5.722;2023-02-17T11:47:58;20.80;28.70
32173;DHT22;18679;45.190;5.722;2023-02-17T11:51:12;21.40;28.00
32173;DHT22;18679;45.190;5.722;2023-02-17T12:19:51;24.70;23.00
32173;DHT22;18679;45.190;5.722;2023-02-17T12:33:33;25.30;23.40
32173;DHT22;18679;45.190;5.722;2023-02-17T12:36:39;25.50;23.10
32173;DHT22;18679;45.190;5.722;2023-02-17T12:39:47;25.40;22.90
32173;DHT22;18679;45.190;5.722;2023-02-17T12:42:51;25.30;23.00
32173;DHT22;18679;45.190;5.722;2023-02-17T12:45:57;25.30;22.90
32173;DHT22;18679;45.190;5.722;2023-02-17T12:49:03;25.40;22.80
32173;DHT22;18679;45.190;5.722;2023-02-17T12:52:22;25.40;22.80
32173;DHT22;18679;45.190;5.722;2023-02-17T12:55:33;25.00;23.10
32173;DHT22;18679;45.190;5.722;2023-02-17T12:58:35;24.50;23.80
32173;DHT22;18679;45.190;5.722;2023-02-17T13:01:41;24.00;24.10
32173;DHT22;18679;45.190;5.722;2023-02-17T13:04:46;23.60;24.50
32173;DHT22;18679;45.190;5.722;2023-02-17T13:08:35;23.10;24.80
32173;DHT22;18679;45.190;5.722;2023-02-17T13:11:31;22.60;25.20
32173;DHT22;18679;45.190;5.722;2023-02-17T13:14:41;22.10;25.60
32173;DHT22;18679;45.190;5.722;2023-02-17T13:24:38;21.10;26.60
32173;DHT22;18679;45.190;5.722;2023-02-17T13:27:50;20.80;26.80
32173;DHT22;18679;45.190;5.722;2023-02-17T13:30:54;20.60;26.90
32173;DHT22;18679;45.190;5.722;2023-02-17T13:33:57;20.40;27.00
32173;DHT22;18679;45.190;5.722;2023-02-17T13:37:01;20.20;27.10
32173;DHT22;18679;45.190;5.722;2023-02-17T13:43:19;19.90;27.60
32173;DHT22;18679;45.190;5.722;2023-02-17T13:46:25;19.80;27.70
32173;DHT22;18679;45.190;5.722;2023-02-17T13:49:28;19.70;27.80
32173;DHT22;18679;45.190;5.722;2023-02-17T13:52:32;19.60;28.00
32173;DHT22;18679;45.190;5.722;2023-02-17T13:55:33;19.60;28.10
32173;DHT22;18679;45.190;5.722;2023-02-17T13:58:39;19.60;28.20
32173;DHT22;18679;45.190;5.722;2023-02-17T14:01:41;19.50;28.30
32173;DHT22;18679;45.190;5.722;2023-02-17T14:04:43;19.50;28.20
32173;DHT22;18679;45.190;5.722;2023-02-17T14:07:46;19.50;28.20
32173;DHT22;18679;45.190;5.722;2023-02-17T14:10:47;19.50;28.00
32173;DHT22;18679;45.190;5.722;2023-02-17T14:13:50;19.50;27.90
32173;DHT22;18679;45.190;5.722;2023-02-17T14:19:59;19.40;27.90
32173;DHT22;18679;45.190;5.722;2023-02-17T14:23:12;19.40;27.70
32173;DHT22;18679;45.190;5.722;2023-02-17T14:26:46;19.40;27.80
32173;DHT22;18679;45.190;5.722;2023-02-17T14:29:48;19.40;27.90
32173;DHT22;18679;45.190;5.722;2023-02-17T14:33:00;19.40;27.90
32173;DHT22;18679;45.190;5.722;2023-02-17T14:36:03;19.40;28.00
32173;DHT22;18679;45.190;5.722;2023-02-17T14:39:13;19.40;28.00
32173;DHT22;18679;45.190;5.722;2023-02-17T14:42:14;19.40;28.10
32173;DHT22;18679;45.190;5.722;2023-02-17T14:45:16;19.40;28.10
32173;DHT22;18679;45.190;5.722;2023-02-17T14:48:18;19.40;28.10
32173;DHT22;18679;45.190;5.722;2023-02-17T14:51:22;19.40;28.10
32173;DHT22;18679;45.190;5.722;2023-02-17T14:54:23;19.40;28.10
32173;DHT22;18679;45.190;5.722;2023-02-17T14:57:26;19.40;28.20
32173;DHT22;18679;45.190;5.722;2023-02-17T15:00:27;19.40;28.20
32173;DHT22;18679;45.190;5.722;2023-02-17T15:03:28;19.40;28.30
32173;DHT22;18679;45.190;5.722;2023-02-17T15:06:38;19.40;28.30
32173;DHT22;18679;45.190;5.722;2023-02-17T15:09:41;19.40;28.30
32173;DHT22;18679;45.190;5.722;2023-02-17T15:12:43;19.40;28.40
32173;DHT22;18679;45.190;5.722;2023-02-17T15:15:45;19.40;28.40
32173;DHT22;18679;45.190;5.722;2023-02-17T15:18:47;19.40;28.40
32173;DHT22;18679;45.190;5.722;2023-02-17T15:21:50;19.40;28.40
32173;DHT22;18679;45.190;5.722;2023-02-17T15:24:52;19.40;28.50
32173;DHT22;18679;45.190;5.722;2023-02-17T15:27:53;19.40;28.60
32173;DHT22;18679;45.190;5.722;2023-02-17T15:30:55;19.40;28.60
32173;DHT22;18679;45.190;5.722;2023-02-17T15:33:58;19.40;28.60
32173;DHT22;18679;45.190;5.722;2023-02-17T15:37:00;19.40;28.60
32173;DHT22;18679;45.190;5.722;2023-02-17T15:40:01;19.40;28.70
32173;DHT22;18679;45.190;5.722;2023-02-17T15:43:02;19.40;28.70
32173;DHT22;18679;45.190;5.722;2023-02-17T15:46:11;19.40;28.80
32173;DHT22;18679;45.190;5.722;2023-02-17T15:49:13;19.30;28.80
32173;DHT22;18679;45.190;5.722;2023-02-17T15:52:14;19.30;28.90
32173;DHT22;18679;45.190;5.722;2023-02-17T15:55:16;19.30;29.00
32173;DHT22;18679;45.190;5.722;2023-02-17T15:58:21;19.30;29.10
32173;DHT22;18679;45.190;5.722;2023-02-17T16:01:27;19.30;29.20
32173;DHT22;18679;45.190;5.722;2023-02-17T16:04:28;19.20;29.20
32173;DHT22;18679;45.190;5.722;2023-02-17T16:07:30;19.20;29.20
32173;DHT22;18679;45.190;5.722;2023-02-17T16:10:32;19.20;29.40
32173;DHT22;18679;45.190;5.722;2023-02-17T16:13:33;19.20;29.40
32173;DHT22;18679;45.190;5.722;2023-02-17T16:16:34;19.20;30.00
32173;DHT22;18679;45.190;5.722;2023-02-17T16:19:35;19.20;30.90
32173;DHT22;18679;45.190;5.722;2023-02-17T16:22:37;19.10;31.30
32173;DHT22;18679;45.190;5.722;2023-02-17T16:25:38;19.10;31.20
32173;DHT22;18679;45.190;5.722;2023-02-17T16:28:41;19.10;31.90
32173;DHT22;18679;45.190;5.722;2023-02-17T16:31:42;19.10;32.00
32173;DHT22;18679;45.190;5.722;2023-02-17T16:34:44;19.10;32.90
32173;DHT22;18679;45.190;5.722;2023-02-17T16:37:53;19.00;33.40
32173;DHT22;18679;45.190;5.722;2023-02-17T16:40:58;18.90;33.70
32173;DHT22;18679;45.190;5.722;2023-02-17T16:44:00;18.90;34.00
32173;DHT22;18679;45.190;5.722;2023-02-17T16:47:01;18.90;34.40
32173;DHT22;18679;45.190;5.722;2023-02-17T16:50:05;18.80;34.70
32173;DHT22;18679;45.190;5.722;2023-02-17T16:53:09;18.80;35.20
32173;DHT22;18679;45.190;5.722;2023-02-17T16:56:34;18.80;35.60
32173;DHT22;18679;45.190;5.722;2023-02-17T16:59:36;18.70;35.80
32173;DHT22;18679;45.190;5.722;2023-02-17T17:02:37;18.70;35.90
32173;DHT22;18679;45.190;5.722;2023-02-17T17:05:38;18.70;35.90
32173;DHT22;18679;45.190;5.722;2023-02-17T17:08:40;18.70;36.10
32173;DHT22;18679;45.190;5.722;2023-02-17T17:11:41;18.60;36.30
32173;DHT22;18679;45.190;5.722;2023-02-17T17:14:42;18.60;36.50
32173;DHT22;18679;45.190;5.722;2023-02-17T17:20:54;18.60;36.70
32173;DHT22;18679;45.190;5.722;2023-02-17T17:23:55;18.60;37.00
32173;DHT22;18679;45.190;5.722;2023-02-17T17:26:56;18.60;37.70
32173;DHT22;18679;45.190;5.722;2023-02-17T17:29:57;18.50;37.30
32173;DHT22;18679;45.190;5.722;2023-02-17T17:32:58;18.40;37.60
32173;DHT22;18679;45.190;5.722;2023-02-17T17:35:59;18.40;37.70
32173;DHT22;18679;45.190;5.722;2023-02-17T17:39:05;18.40;38.00
32173;DHT22;18679;45.190;5.722;2023-02-17T17:42:07;18.40;38.10
32173;DHT22;18679;45.190;5.722;2023-02-17T17:45:10;18.40;38.40
32173;DHT22;18679;45.190;5.722;2023-02-17T17:48:15;18.30;38.30
32173;DHT22;18679;45.190;5.722;2023-02-17T17:51:18;18.20;38.40
32173;DHT22;18679;45.190;5.722;2023-02-17T17:54:20;18.30;38.60
32173;DHT22;18679;45.190;5.722;2023-02-17T17:57:21;18.30;38.80
32173;DHT22;18679;45.190;5.722;2023-02-17T18:00:22;18.30;39.00
32173;DHT22;18679;45.190;5.722;2023-02-17T18:03:24;18.30;39.30
32173;DHT22;18679;45.190;5.722;2023-02-17T18:06:37;18.20;39.40
32173;DHT22;18679;45.190;5.722;2023-02-17T18:09:40;18.20;39.50
32173;DHT22;18679;45.190;5.722;2023-02-17T18:12:43;18.20;39.70
32173;DHT22;18679;45.190;5.722;2023-02-17T18:15:45;18.20;39.90
32173;DHT22;18679;45.190;5.722;2023-02-17T18:18:47;18.10;39.90
32173;DHT22;18679;45.190;5.722;2023-02-17T18:21:48;18.00;40.10
32173;DHT22;18679;45.190;5.722;2023-02-17T18:24:50;18.00;40.30
32173;DHT22;18679;45.190;5.722;2023-02-17T18:27:51;18.00;40.60
32173;DHT22;18679;45.190;5.722;2023-02-17T18:30:52;18.00;40.60
32173;DHT22;18679;45.190;5.722;2023-02-17T18:33:54;17.90;40.60
32173;DHT22;18679;45.190;5.722;2023-02-17T18:36:55;17.90;40.80
32173;DHT22;18679;45.190;5.722;2023-02-17T18:39:58;17.90;40.90
32173;DHT22;18679;45.190;5.722;2023-02-17T18:42:59;17.90;41.00
32173;DHT22;18679;45.190;5.722;2023-02-17T18:46:00;17.90;41.00
32173;DHT22;18679;45.190;5.722;2023-02-17T18:49:01;17.80;41.00
32173;DHT22;18679;45.190;5.722;2023-02-17T18:52:02;17.80;41.30
32173;DHT22;18679;45.190;5.722;2023-02-17T18:55:03;17.80;41.40
32173;DHT22;18679;45.190;5.722;2023-02-17T18:58:05;17.70;41.60
32173;DHT22;18679;45.190;5.722;2023-02-17T19:01:06;17.70;41.80
32173;DHT22;18679;45.190;5.722;2023-02-17T19:04:13;17.70;42.00
32173;DHT22;18679;45.190;5.722;2023-02-17T19:07:15;17.60;42.20
32173;DHT22;18679;45.190;5.722;2023-02-17T19:10:15;17.60;42.40
32173;DHT22;18679;45.190;5.722;2023-02-17T19:13:17;17.60;42.90
32173;DHT22;18679;45.190;5.722;2023-02-17T19:16:23;17.50;43.10
32173;DHT22;18679;45.190;5.722;2023-02-17T19:19:25;17.50;43.40
32173;DHT22;18679;45.190;5.722;2023-02-17T19:22:29;17.50;43.80
32173;DHT22;18679;45.190;5.722;2023-02-17T19:25:30;17.40;44.00
32173;DHT22;18679;45.190;5.722;2023-02-17T19:28:31;17.40;44.20
32173;DHT22;18679;45.190;5.722;2023-02-17T19:31:33;17.40;44.50
32173;DHT22;18679;45.190;5.722;2023-02-17T19:34:37;17.40;44.60
32173;DHT22;18679;45.190;5.722;2023-02-17T19:37:38;17.30;44.50
32173;DHT22;18679;45.190;5.722;2023-02-17T19:40:39;17.30;44.40
32173;DHT22;18679;45.190;5.722;2023-02-17T19:43:40;17.20;44.10
32173;DHT22;18679;45.190;5.722;2023-02-17T19:46:41;17.20;43.70
32173;DHT22;18679;45.190;5.722;2023-02-17T19:49:43;17.10;42.90
32173;DHT22;18679;45.190;5.722;2023-02-17T19:52:44;17.00;42.30
32173;DHT22;18679;45.190;5.722;2023-02-17T19:55:45;16.90;42.00
32173;DHT22;18679;45.190;5.722;2023-02-17T19:58:47;16.80;41.50
32173;DHT22;18679;45.190;5.722;2023-02-17T20:01:48;16.70;41.10
32173;DHT22;18679;45.190;5.722;2023-02-17T20:04:49;16.60;41.00
32173;DHT22;18679;45.190;5.722;2023-02-17T20:07:50;16.50;40.90
32173;DHT22;18679;45.190;5.722;2023-02-17T20:10:51;16.50;41.20
32173;DHT22;18679;45.190;5.722;2023-02-17T20:13:53;16.40;41.30
32173;DHT22;18679;45.190;5.722;2023-02-17T20:16:54;16.40;41.20
32173;DHT22;18679;45.190;5.722;2023-02-17T20:19:56;16.40;41.20
32173;DHT22;18679;45.190;5.722;2023-02-17T20:22:57;16.20;41.00
32173;DHT22;18679;45.190;5.722;2023-02-17T20:25:58;16.30;41.10
32173;DHT22;18679;45.190;5.722;2023-02-17T20:29:00;16.20;41.10
32173;DHT22;18679;45.190;5.722;2023-02-17T20:32:02;16.20;41.20
32173;DHT22;18679;45.190;5.722;2023-02-17T20:35:03;16.20;41.50
32173;DHT22;18679;45.190;5.722;2023-02-17T20:38:05;16.10;41.60
32173;DHT22;18679;45.190;5.722;2023-02-17T20:41:07;16.00;41.60
32173;DHT22;18679;45.190;5.722;2023-02-17T20:44:10;16.00;41.70
32173;DHT22;18679;45.190;5.722;2023-02-17T20:47:12;15.90;41.90
32173;DHT22;18679;45.190;5.722;2023-02-17T20:50:18;15.90;42.00
32173;DHT22;18679;45.190;5.722;2023-02-17T20:53:19;15.80;42.20
32173;DHT22;18679;45.190;5.722;2023-02-17T20:56:22;15.70;42.30
32173;DHT22;18679;45.190;5.722;2023-02-17T20:59:24;15.70;42.30
32173;DHT22;18679;45.190;5.722;2023-02-17T21:02:25;15.60;42.30
32173;DHT22;18679;45.190;5.722;2023-02-17T21:05:26;15.50;42.30